Archival Weather

Phoenix Sky Harbor Intl

Phoenix, Arizona (KPHX)

Report from: Thursday, December 7, 2023 6:51 PM MST
Current time: Monday, July 22, 2024 3:42 AM MST

Current weather – Weather history – Daily summaries
Weather forecast

Temperature22.2°C (72.0°F)
Dew point1.1°C (34.0°F)
Winds 7 kts (3.6 m/s, 8.1 mph) Northwest (310°)
Visibility10 mi. (16.1 km)
Clouds Sky clear
Altimeter29.89 in.Hg (1012 mB)
Relative humidity25 %
Density altitude1,014 ft. (309 m)
Sea-level pressure101.1 kPa (1011 mB, 29.86 in.Hg)
Remarks Automated weather observing station with precipitation discriminator
Flight conditions Visual Meteorological Conditions
Raw dataKPHX 080151Z 31007KT 10SM CLR 22/01 A2989 RMK AO2 SLP111 T02220011
An error has occurred. This application may no longer respond until reloaded. Reload 🗙